Главная страница
METAR-TAF:

METAR-TAF

Аэропорты :

Николаев, Украина

широта: 47-03-29N, долгота: 031-55-15E, высота над уровнем моря: 56 м

Текущие метеонаблюдения

Эта сводка был подготовлена 13 часа и 0 минут назад, в 14:00 UTC
Ветер 12 Узел от восточно-северо-восточный
Температура 18°C
Влажность 73%
Давление 1021 hPa
Видимость 10 км и более
Отдельные облака на высоте 3000 фута, Кучево-дождевые.
Сплошная облачность на высоте 10000 фута

METAR: UKON 261400Z 06006MPS 9999 SCT030CB OVC100 18/13 Q1021 NOSIG

Время: 06:00 (03:00 UTC)


TAF: отсутствует

Метеонаблюдения и прогнозы для более 4000 аэропортов (сводки METAR и TAF).

Имеющиеся станции представлены на карте желтыми и красными точками.

Чтобы увидеть название станции, наведите на нее мышь.

Затем щелкните, чтобы увидеть метеонаблюдения и метеопрогнозы.

Управление картой: чтобы увеличить масштаб, щелкните зеленые кнопки с черным крестиком; чтобы уменьшить масштаб, щелкните зеленую кнопку с тире; для просмотра соседних карт щелкайте зеленые стрелки.


METAR-TAF: